Time;durP1;ratioP1;P1;durP2;ratioP2;P2;SDS_P1;SDS_P2;PMS_P1;PMS_P2;Temp;Humidity;BMP_temperature;BMP_pressure;BME280_temperature;BME280_humidity;BME280_pressure;Samples;Min_cycle;Max_cycle;Signal;HPM_P1;HPM_P2
2023/08/12 00:01:31;;;;;;;2.75;2.13;;;;;;;;;;5044648;28;20045;-75
2023/08/12 00:04:03;;;;;;;3.78;2.15;;;;;;;;;;5044564;28;20068;-73
2023/08/12 00:06:34;;;;;;;2.65;1.90;;;;;;;;;;5043275;28;20060;-75
2023/08/12 00:09:05;;;;;;;3.72;1.90;;;;;;;;;;5043746;28;20392;-75
2023/08/12 00:11:38;;;;;;;5.97;2.17;;;;;;;;;;5043935;28;20503;-74
2023/08/12 00:14:10;;;;;;;6.43;2.20;;;;;;;;;;5044186;28;20419;-74
2023/08/12 00:16:42;;;;;;;3.60;2.05;;;;;;;;;;5044118;28;20045;-75
2023/08/12 00:19:13;;;;;;;2.83;2.30;;;;;;;;;;5041288;28;20045;-74
2023/08/12 00:21:44;;;;;;;4.93;2.15;;;;;;;;;;5040867;28;20492;-73
2023/08/12 00:24:18;;;;;;;2.40;1.70;;;;;;;;;;5040623;28;20051;-74
2023/08/12 00:26:49;;;;;;;4.35;2.28;;;;;;;;;;5039020;28;20427;-74
2023/08/12 00:29:20;;;;;;;5.57;2.25;;;;;;;;;;5041041;28;21098;-73
2023/08/12 00:31:52;;;;;;;2.72;2.22;;;;;;;;;;5041507;28;20049;-74
2023/08/12 00:34:23;;;;;;;4.45;1.95;;;;;;;;;;5040640;28;20045;-74
2023/08/12 00:36:54;;;;;;;2.53;2.05;;;;;;;;;;5040790;28;20056;-75
2023/08/12 00:39:27;;;;;;;2.97;2.33;;;;;;;;;;5041079;28;20729;-74
2023/08/12 00:41:57;;;;;;;3.63;2.38;;;;;;;;;;5041096;28;20056;-73
2023/08/12 00:44:29;;;;;;;5.72;2.47;;;;;;;;;;5039533;28;20439;-73
2023/08/12 00:47:00;;;;;;;4.50;2.53;;;;;;;;;;5038632;28;20060;-75
2023/08/12 00:49:33;;;;;;;4.30;2.10;;;;;;;;;;5039525;28;20056;-76
2023/08/12 00:52:04;;;;;;;4.38;2.05;;;;;;;;;;5040098;28;20045;-74
2023/08/12 00:54:34;;;;;;;3.72;2.17;;;;;;;;;;5040604;28;20452;-76
2023/08/12 00:57:07;;;;;;;3.13;2.10;;;;;;;;;;5040593;28;20068;-75
2023/08/12 00:59:42;;;;;;;4.45;2.10;;;;;;;;;;5040879;28;20049;-74
2023/08/12 01:02:13;;;;;;;4.13;2.55;;;;;;;;;;5040070;28;20052;-75
2023/08/12 01:04:45;;;;;;;6.72;2.08;;;;;;;;;;5040366;28;20057;-75
2023/08/12 01:07:16;;;;;;;4.30;1.85;;;;;;;;;;5040932;28;20056;-76
2023/08/12 01:09:47;;;;;;;3.42;2.35;;;;;;;;;;5040140;28;20397;-75
2023/08/12 01:12:48;;;;;;;7.35;2.33;;;;;;;;;;5038866;28;20049;-75
2023/08/12 01:15:23;;;;;;;2.75;1.98;;;;;;;;;;5038093;28;20061;-75
2023/08/12 01:17:55;;;;;;;7.18;2.30;;;;;;;;;;5040007;28;20072;-75
2023/08/12 01:20:30;;;;;;;3.90;2.25;;;;;;;;;;5038180;28;20056;-75
2023/08/12 01:23:09;;;;;;;5.78;2.40;;;;;;;;;;5038120;28;20490;-75
2023/08/12 01:25:41;;;;;;;4.28;2.80;;;;;;;;;;5039977;28;20044;-76
2023/08/12 01:28:12;;;;;;;5.18;3.13;;;;;;;;;;5039939;28;20045;-75
2023/08/12 01:31:22;;;;;;;8.43;2.63;;;;;;;;;;5039930;28;20049;-75
2023/08/12 01:34:26;;;;;;;3.88;2.08;;;;;;;;;;5039424;28;20053;-76
2023/08/12 01:36:59;;;;;;;3.17;2.25;;;;;;;;;;5039186;28;20379;-72
2023/08/12 01:39:32;;;;;;;3.72;2.55;;;;;;;;;;5039266;28;20112;-73
2023/08/12 01:42:09;;;;;;;3.72;2.40;;;;;;;;;;5038362;28;20085;-73
2023/08/12 01:44:39;;;;;;;8.20;2.40;;;;;;;;;;5037092;28;20056;-74
2023/08/12 01:47:11;;;;;;;2.92;2.38;;;;;;;;;;5038177;28;20048;-75
2023/08/12 01:49:43;;;;;;;7.50;2.53;;;;;;;;;;5038116;28;20808;-75
2023/08/12 01:52:13;;;;;;;4.75;2.28;;;;;;;;;;5038241;28;20059;-75
2023/08/12 01:54:44;;;;;;;5.22;2.58;;;;;;;;;;5039043;28;20376;-75
2023/08/12 01:57:14;;;;;;;10.85;3.97;;;;;;;;;;5038704;28;20419;-74
2023/08/12 01:59:44;;;;;;;5.85;2.83;;;;;;;;;;5037098;28;20420;-74
2023/08/12 02:02:19;;;;;;;6.78;2.88;;;;;;;;;;5037714;28;20535;-74
2023/08/12 02:04:50;;;;;;;5.50;2.83;;;;;;;;;;5039850;28;20059;-75
2023/08/12 02:07:20;;;;;;;6.78;3.00;;;;;;;;;;5040626;28;20567;-75
2023/08/12 02:09:50;;;;;;;4.95;2.53;;;;;;;;;;5040019;28;20080;-75
2023/08/12 02:12:21;;;;;;;5.18;2.67;;;;;;;;;;5037308;28;20397;-75
2023/08/12 02:14:51;;;;;;;16.45;3.85;;;;;;;;;;5037438;28;20633;-75
2023/08/12 02:17:22;;;;;;;9.23;3.25;;;;;;;;;;5037185;28;20092;-75
2023/08/12 02:19:52;;;;;;;5.38;2.85;;;;;;;;;;5038341;28;20064;-74
2023/08/12 02:22:24;;;;;;;7.90;2.75;;;;;;;;;;5038338;28;20060;-75
2023/08/12 02:24:55;;;;;;;6.00;2.90;;;;;;;;;;5039377;28;20415;-75
2023/08/12 02:27:26;;;;;;;9.48;3.03;;;;;;;;;;5038917;28;20053;-75
2023/08/12 02:29:56;;;;;;;7.68;2.40;;;;;;;;;;5037431;28;20064;-75
2023/08/12 02:32:28;;;;;;;3.28;2.30;;;;;;;;;;5039288;28;20052;-75
2023/08/12 02:34:59;;;;;;;4.93;2.35;;;;;;;;;;5038829;28;20049;-74
2023/08/12 02:37:31;;;;;;;5.70;2.47;;;;;;;;;;5037037;28;20523;-75
2023/08/12 02:40:04;;;;;;;5.35;2.33;;;;;;;;;;5037255;28;20057;-75
2023/08/12 02:42:34;;;;;;;4.45;2.17;;;;;;;;;;5036496;28;20049;-75
2023/08/12 02:45:14;;;;;;;4.80;2.28;;;;;;;;;;5038757;28;20049;-74
2023/08/12 02:47:44;;;;;;;3.28;2.30;;;;;;;;;;5038600;28;20076;-75
2023/08/12 02:50:15;;;;;;;5.13;2.25;;;;;;;;;;5038854;28;20053;-75
2023/08/12 02:52:46;;;;;;;4.22;2.42;;;;;;;;;;5039081;28;20056;-75
2023/08/12 02:55:16;;;;;;;4.47;2.38;;;;;;;;;;5038624;28;20048;-75
2023/08/12 02:57:47;;;;;;;7.40;2.15;;;;;;;;;;5038968;28;20792;-74
2023/08/12 03:00:24;;;;;;;7.68;2.33;;;;;;;;;;5036769;28;20059;-76
2023/08/12 03:02:55;;;;;;;6.78;2.42;;;;;;;;;;5038121;28;20076;-75
2023/08/12 03:05:26;;;;;;;4.72;2.33;;;;;;;;;;5037560;28;20053;-75
2023/08/12 03:08:01;;;;;;;10.75;2.70;;;;;;;;;;5037033;28;20424;-75
2023/08/12 03:10:33;;;;;;;11.48;2.33;;;;;;;;;;5042136;28;20052;-75
2023/08/12 03:13:03;;;;;;;5.43;2.03;;;;;;;;;;5025713;28;20056;-75
2023/08/12 03:15:35;;;;;;;5.90;2.20;;;;;;;;;;5040117;28;20847;-76
2023/08/12 03:18:06;;;;;;;6.70;2.30;;;;;;;;;;5040724;28;20060;-76
2023/08/12 03:20:38;;;;;;;4.50;2.20;;;;;;;;;;5040286;28;20068;-75
2023/08/12 03:23:08;;;;;;;4.97;2.25;;;;;;;;;;5040883;28;20056;-75
2023/08/12 03:25:40;;;;;;;8.07;2.42;;;;;;;;;;5024155;28;20053;-75
2023/08/12 03:28:11;;;;;;;6.25;2.40;;;;;;;;;;5042707;28;20044;-75
2023/08/12 03:30:41;;;;;;;4.50;1.90;;;;;;;;;;5040742;28;20048;-74
2023/08/12 03:33:14;;;;;;;4.20;1.75;;;;;;;;;;5042538;28;20040;-74
2023/08/12 03:35:50;;;;;;;8.20;1.90;;;;;;;;;;5040860;28;20045;-76
2023/08/12 03:38:22;;;;;;;3.63;1.83;;;;;;;;;;5040317;28;20053;-74
2023/08/12 03:40:52;;;;;;;5.25;1.98;;;;;;;;;;5040793;28;20057;-74
2023/08/12 03:43:22;;;;;;;2.55;1.80;;;;;;;;;;5041902;28;20051;-75
2023/08/12 03:45:53;;;;;;;6.85;2.25;;;;;;;;;;5040896;28;20604;-75
2023/08/12 03:48:25;;;;;;;4.43;1.50;;;;;;;;;;5041673;28;20586;-75
2023/08/12 03:50:57;;;;;;;2.78;1.52;;;;;;;;;;5040395;28;20558;-75
2023/08/12 03:53:28;;;;;;;5.00;1.83;;;;;;;;;;5040793;28;20056;-75
2023/08/12 03:55:58;;;;;;;2.60;1.65;;;;;;;;;;5040394;28;20524;-75
2023/08/12 03:58:30;;;;;;;3.45;1.50;;;;;;;;;;5040143;28;20508;-74
2023/08/12 04:01:01;;;;;;;4.38;1.73;;;;;;;;;;5039593;28;20040;-74
2023/08/12 04:03:31;;;;;;;5.00;1.67;;;;;;;;;;5041924;28;20053;-76
2023/08/12 04:06:03;;;;;;;2.92;1.67;;;;;;;;;;5041291;28;20048;-75
2023/08/12 04:08:35;;;;;;;7.68;1.90;;;;;;;;;;5042208;28;20052;-75
2023/08/12 04:11:06;;;;;;;4.20;1.88;;;;;;;;;;5040003;28;20056;-75
2023/08/12 04:13:36;;;;;;;3.33;1.90;;;;;;;;;;5039090;28;20749;-75
2023/08/12 04:16:06;;;;;;;3.65;1.90;;;;;;;;;;5041233;28;20041;-75
2023/08/12 04:18:37;;;;;;;6.85;2.25;;;;;;;;;;5040386;28;20075;-76
2023/08/12 04:21:08;;;;;;;4.97;1.67;;;;;;;;;;5040210;28;20049;-76
2023/08/12 04:23:39;;;;;;;6.05;1.83;;;;;;;;;;5039564;28;21161;-76
2023/08/12 04:26:09;;;;;;;5.07;1.77;;;;;;;;;;5039521;28;20064;-76
2023/08/12 04:28:39;;;;;;;4.20;2.00;;;;;;;;;;5040784;28;20061;-76
2023/08/12 04:31:17;;;;;;;3.67;1.98;;;;;;;;;;5024171;28;20057;-76
2023/08/12 04:33:49;;;;;;;8.27;2.22;;;;;;;;;;5038630;28;20060;-76
2023/08/12 04:36:20;;;;;;;5.35;2.22;;;;;;;;;;5039684;28;20053;-75
2023/08/12 04:38:50;;;;;;;6.05;2.78;;;;;;;;;;5038996;28;20059;-75
2023/08/12 04:41:23;;;;;;;4.18;1.98;;;;;;;;;;5039179;28;20597;-76
2023/08/12 04:43:56;;;;;;;3.58;2.00;;;;;;;;;;5039500;28;20049;-76
2023/08/12 04:46:29;;;;;;;4.38;2.10;;;;;;;;;;5038954;28;20405;-76
2023/08/12 04:49:00;;;;;;;6.25;1.95;;;;;;;;;;5038321;28;20052;-76
2023/08/12 04:51:30;;;;;;;3.33;1.95;;;;;;;;;;5038560;28;20057;-76
2023/08/12 04:54:08;;;;;;;3.22;1.98;;;;;;;;;;5038311;28;20065;-76
2023/08/12 04:56:41;;;;;;;4.35;1.92;;;;;;;;;;5039001;28;20064;-76
2023/08/12 04:59:18;;;;;;;5.45;1.85;;;;;;;;;;5040828;28;20053;-76
2023/08/12 05:01:48;;;;;;;5.38;2.42;;;;;;;;;;5038560;28;20061;-76
2023/08/12 05:04:32;;;;;;;8.55;2.50;;;;;;;;;;5038594;28;20060;-74
2023/08/12 05:07:03;;;;;;;7.63;2.38;;;;;;;;;;5038628;28;20059;-74
2023/08/12 05:09:34;;;;;;;4.10;1.90;;;;;;;;;;5038816;28;20057;-75
2023/08/12 05:12:05;;;;;;;5.38;1.92;;;;;;;;;;5040266;28;20555;-76
2023/08/12 05:14:36;;;;;;;5.43;1.58;;;;;;;;;;5039079;28;20061;-76
2023/08/12 05:17:06;;;;;;;5.07;1.60;;;;;;;;;;5039036;28;20435;-76
2023/08/12 05:19:38;;;;;;;5.15;1.60;;;;;;;;;;5038113;28;20064;-76
2023/08/12 05:22:08;;;;;;;3.55;1.60;;;;;;;;;;5038970;28;20523;-75
2023/08/12 05:24:39;;;;;;;2.08;1.38;;;;;;;;;;5039773;28;20070;-76
2023/08/12 05:27:11;;;;;;;5.15;1.38;;;;;;;;;;5039946;28;20053;-76
2023/08/12 05:29:41;;;;;;;3.28;1.50;;;;;;;;;;5040010;28;20538;-76
2023/08/12 05:32:12;;;;;;;4.65;1.55;;;;;;;;;;5039934;28;20041;-76
2023/08/12 05:34:42;;;;;;;7.40;1.55;;;;;;;;;;5040280;28;20048;-75
2023/08/12 05:37:13;;;;;;;4.03;1.33;;;;;;;;;;5039354;28;20783;-76
2023/08/12 05:39:43;;;;;;;4.05;1.50;;;;;;;;;;5040118;28;20514;-76
2023/08/12 05:42:13;;;;;;;2.60;1.20;;;;;;;;;;5040026;28;20049;-76
2023/08/12 05:44:44;;;;;;;3.97;1.30;;;;;;;;;;5039179;28;20044;-76
2023/08/12 05:47:16;;;;;;;2.28;1.38;;;;;;;;;;5038438;28;20526;-76
2023/08/12 05:49:46;;;;;;;8.68;1.20;;;;;;;;;;5039257;28;20053;-75
2023/08/12 05:52:17;;;;;;;4.05;1.20;;;;;;;;;;5039730;28;20483;-76
2023/08/12 05:54:47;;;;;;;2.42;1.08;;;;;;;;;;5038056;28;20044;-76
2023/08/12 05:57:17;;;;;;;1.63;1.00;;;;;;;;;;5038392;28;20108;-76
2023/08/12 05:59:48;;;;;;;2.25;1.20;;;;;;;;;;5039620;28;20051;-76
2023/08/12 06:02:20;;;;;;;4.28;1.40;;;;;;;;;;5039353;28;20040;-76
2023/08/12 06:04:50;;;;;;;1.48;1.00;;;;;;;;;;5039558;28;20045;-76
2023/08/12 06:07:20;;;;;;;2.33;1.00;;;;;;;;;;5038298;28;20056;-76
2023/08/12 06:09:51;;;;;;;1.50;0.93;;;;;;;;;;5039447;28;20052;-76
2023/08/12 06:12:21;;;;;;;4.80;1.10;;;;;;;;;;5039814;28;20037;-76
2023/08/12 06:14:52;;;;;;;4.60;1.50;;;;;;;;;;5039286;28;20045;-76
2023/08/12 06:17:23;;;;;;;1.08;0.93;;;;;;;;;;5039393;28;20072;-76
2023/08/12 06:19:53;;;;;;;3.90;1.45;;;;;;;;;;5039258;28;20049;-75
2023/08/12 06:22:24;;;;;;;1.75;0.98;;;;;;;;;;5036975;28;20443;-76
2023/08/12 06:24:56;;;;;;;2.13;1.30;;;;;;;;;;5038943;28;20051;-76
2023/08/12 06:27:27;;;;;;;4.10;1.30;;;;;;;;;;5037808;28;20053;-75
2023/08/12 06:29:57;;;;;;;3.03;1.10;;;;;;;;;;5038824;28;21144;-76
2023/08/12 06:32:37;;;;;;;2.42;1.20;;;;;;;;;;5039112;28;20052;-76
2023/08/12 06:35:09;;;;;;;2.85;1.05;;;;;;;;;;5037058;28;20048;-76
2023/08/12 06:37:40;;;;;;;2.45;0.88;;;;;;;;;;5038496;28;20049;-76
2023/08/12 06:40:10;;;;;;;2.97;0.90;;;;;;;;;;5039051;28;20049;-75
2023/08/12 06:42:41;;;;;;;2.42;0.93;;;;;;;;;;5037610;28;20045;-75
2023/08/12 06:45:11;;;;;;;5.43;1.30;;;;;;;;;;5045101;28;20397;-75
2023/08/12 06:47:43;;;;;;;8.55;0.90;;;;;;;;;;5045547;28;20045;-75
2023/08/12 06:50:13;;;;;;;1.23;0.70;;;;;;;;;;5045408;28;20535;-76
2023/08/12 06:52:43;;;;;;;3.80;0.90;;;;;;;;;;5056254;28;20510;-75
2023/08/12 06:55:14;;;;;;;1.25;1.00;;;;;;;;;;5065484;28;20044;-75
2023/08/12 06:57:50;;;;;;;1.77;1.10;;;;;;;;;;5065502;28;20048;-75
2023/08/12 07:00:21;;;;;;;2.85;1.10;;;;;;;;;;5064895;28;20052;-76
2023/08/12 07:02:51;;;;;;;2.45;1.00;;;;;;;;;;5065404;28;20045;-75
2023/08/12 07:05:22;;;;;;;1.55;0.93;;;;;;;;;;5065195;28;20055;-76
2023/08/12 07:07:52;;;;;;;1.38;0.88;;;;;;;;;;5065340;28;20037;-75
2023/08/12 07:10:23;;;;;;;1.63;0.75;;;;;;;;;;5064966;28;20056;-75
2023/08/12 07:12:55;;;;;;;2.92;0.85;;;;;;;;;;5064847;28;20052;-74
2023/08/12 07:15:25;;;;;;;4.10;0.80;;;;;;;;;;5065742;28;20056;-74
2023/08/12 07:17:57;;;;;;;6.57;1.23;;;;;;;;;;5065446;28;20091;-75
2023/08/12 07:20:28;;;;;;;2.55;0.90;;;;;;;;;;5065078;28;20063;-75
2023/08/12 07:22:59;;;;;;;2.47;0.93;;;;;;;;;;5065481;28;20479;-77
2023/08/12 07:25:29;;;;;;;3.72;0.77;;;;;;;;;;5064717;28;20049;-75
2023/08/12 07:28:00;;;;;;;2.75;0.90;;;;;;;;;;5065134;28;20048;-75
2023/08/12 07:30:30;;;;;;;2.42;0.80;;;;;;;;;;5064829;28;20048;-75
2023/08/12 07:33:00;;;;;;;3.83;1.00;;;;;;;;;;5065455;28;20052;-75
2023/08/12 07:35:31;;;;;;;1.00;0.80;;;;;;;;;;5064650;28;20044;-75
2023/08/12 07:38:02;;;;;;;1.90;0.80;;;;;;;;;;5064291;28;20052;-75
2023/08/12 07:40:33;;;;;;;2.67;0.80;;;;;;;;;;5064887;28;20048;-75
2023/08/12 07:43:04;;;;;;;2.20;0.73;;;;;;;;;;5065240;28;20051;-75
2023/08/12 07:45:34;;;;;;;1.05;0.80;;;;;;;;;;5064901;28;20056;-75
2023/08/12 07:48:05;;;;;;;1.73;0.90;;;;;;;;;;5063479;28;20059;-75
2023/08/12 07:50:37;;;;;;;2.90;0.70;;;;;;;;;;5064839;28;20067;-75
2023/08/12 07:53:08;;;;;;;3.10;0.90;;;;;;;;;;5064964;28;20059;-75
2023/08/12 07:55:38;;;;;;;1.95;0.85;;;;;;;;;;5060887;28;20056;-75
2023/08/12 07:58:09;;;;;;;1.90;0.93;;;;;;;;;;5061780;28;20045;-75
2023/08/12 08:00:40;;;;;;;4.63;0.80;;;;;;;;;;5061867;28;20057;-75
2023/08/12 08:03:11;;;;;;;1.75;0.80;;;;;;;;;;5061242;28;20056;-75
2023/08/12 08:05:42;;;;;;;2.10;0.70;;;;;;;;;;5061939;28;20040;-76
2023/08/12 08:08:13;;;;;;;3.05;1.02;;;;;;;;;;5061254;28;20525;-75
2023/08/12 08:10:43;;;;;;;5.70;1.25;;;;;;;;;;5061545;28;20044;-75
2023/08/12 08:13:13;;;;;;;1.88;1.23;;;;;;;;;;5061677;28;20126;-75
2023/08/12 08:15:44;;;;;;;2.03;1.20;;;;;;;;;;5061338;28;20056;-75
2023/08/12 08:18:14;;;;;;;2.85;1.55;;;;;;;;;;5059841;28;20044;-75
2023/08/12 08:20:45;;;;;;;3.50;1.23;;;;;;;;;;5060972;28;20602;-75
2023/08/12 08:23:16;;;;;;;3.83;1.35;;;;;;;;;;5061322;28;20062;-75
2023/08/12 08:25:48;;;;;;;3.78;1.30;;;;;;;;;;5060612;28;20071;-75
2023/08/12 08:28:18;;;;;;;5.40;1.30;;;;;;;;;;5061175;28;20530;-75
2023/08/12 08:30:49;;;;;;;3.47;1.40;;;;;;;;;;5060483;28;20051;-75
2023/08/12 08:33:19;;;;;;;2.88;1.13;;;;;;;;;;5061412;28;20055;-76
2023/08/12 08:35:49;;;;;;;7.03;1.63;;;;;;;;;;5061070;28;20067;-75
2023/08/12 08:38:20;;;;;;;2.45;1.23;;;;;;;;;;5060581;28;20045;-75
2023/08/12 08:40:51;;;;;;;4.20;1.50;;;;;;;;;;5061044;28;20055;-75
2023/08/12 08:43:23;;;;;;;2.08;1.10;;;;;;;;;;5059340;28;20052;-75
2023/08/12 08:45:54;;;;;;;4.57;1.40;;;;;;;;;;5061348;28;20059;-75
2023/08/12 08:48:25;;;;;;;2.65;1.20;;;;;;;;;;5060321;28;20053;-76
2023/08/12 08:50:56;;;;;;;3.72;1.33;;;;;;;;;;5061004;28;20044;-75
2023/08/12 08:53:27;;;;;;;1.90;1.13;;;;;;;;;;5043324;28;20052;-75
2023/08/12 08:55:59;;;;;;;4.22;1.42;;;;;;;;;;5060544;28;20732;-75
2023/08/12 08:58:31;;;;;;;2.95;1.40;;;;;;;;;;5060576;28;20060;-75
2023/08/12 09:01:03;;;;;;;6.25;1.40;;;;;;;;;;5060774;28;20055;-75
2023/08/12 09:03:38;;;;;;;6.68;1.60;;;;;;;;;;5060675;28;20787;-75
2023/08/12 09:06:09;;;;;;;4.18;1.33;;;;;;;;;;5058818;28;20057;-75
2023/08/12 09:08:44;;;;;;;4.13;1.42;;;;;;;;;;5059052;28;20360;-75
2023/08/12 09:11:16;;;;;;;6.20;1.40;;;;;;;;;;5060042;28;20048;-75
2023/08/12 09:13:48;;;;;;;4.00;1.73;;;;;;;;;;5060070;28;20052;-75
2023/08/12 09:16:18;;;;;;;4.82;1.45;;;;;;;;;;5060005;28;20044;-75
2023/08/12 09:18:56;;;;;;;8.38;0.98;;;;;;;;;;5060223;28;20053;-75
2023/08/12 09:21:27;;;;;;;1.40;0.80;;;;;;;;;;5060396;28;20056;-74
2023/08/12 09:24:06;;;;;;;2.67;0.63;;;;;;;;;;5060648;28;20055;-74
2023/08/12 09:26:38;;;;;;;0.82;0.65;;;;;;;;;;5061209;28;20052;-74
2023/08/12 09:29:08;;;;;;;1.20;0.73;;;;;;;;;;5059790;28;20044;-75
2023/08/12 09:31:39;;;;;;;1.10;0.60;;;;;;;;;;5059943;28;20506;-75
2023/08/12 09:34:11;;;;;;;1.15;0.80;;;;;;;;;;5059647;28;20067;-75
2023/08/12 09:36:42;;;;;;;3.92;0.50;;;;;;;;;;5059442;28;20111;-74
2023/08/12 09:39:13;;;;;;;2.20;0.60;;;;;;;;;;5059673;28;20059;-74
2023/08/12 09:41:44;;;;;;;2.97;0.63;;;;;;;;;;5059781;28;20522;-75
2023/08/12 09:44:16;;;;;;;1.95;0.43;;;;;;;;;;5059608;28;20051;-74
2023/08/12 09:46:46;;;;;;;1.55;0.80;;;;;;;;;;5059739;28;20055;-74
2023/08/12 09:49:17;;;;;;;1.02;0.43;;;;;;;;;;5058571;28;20048;-75
2023/08/12 09:51:48;;;;;;;0.70;0.40;;;;;;;;;;5059480;28;20049;-74
2023/08/12 09:54:20;;;;;;;2.70;0.35;;;;;;;;;;5059354;28;20499;-74
2023/08/12 09:56:58;;;;;;;1.27;0.57;;;;;;;;;;5059290;28;20057;-75
2023/08/12 09:59:34;;;;;;;1.23;0.50;;;;;;;;;;5059904;28;20558;-75
2023/08/12 10:02:07;;;;;;;5.13;0.60;;;;;;;;;;5059289;28;20521;-75
2023/08/12 10:04:41;;;;;;;1.40;0.85;;;;;;;;;;5059299;28;20059;-75
2023/08/12 10:07:13;;;;;;;1.42;0.50;;;;;;;;;;5059648;28;20044;-75
2023/08/12 10:09:44;;;;;;;1.85;0.50;;;;;;;;;;5059342;28;20055;-75
2023/08/12 10:12:16;;;;;;;0.50;0.38;;;;;;;;;;5058672;28;20049;-75
2023/08/12 10:14:48;;;;;;;2.67;0.50;;;;;;;;;;5059306;28;20051;-75
2023/08/12 10:17:19;;;;;;;2.08;0.38;;;;;;;;;;5058934;28;20052;-75
2023/08/12 10:20:13;;;;;;;1.80;0.50;;;;;;;;;;5056679;28;20052;-75
2023/08/12 10:22:45;;;;;;;2.45;0.40;;;;;;;;;;5057157;28;20542;-76
2023/08/12 10:25:17;;;;;;;0.95;0.35;;;;;;;;;;5058130;28;20040;-75
2023/08/12 10:27:49;;;;;;;1.15;0.50;;;;;;;;;;5059495;28;20052;-76
2023/08/12 10:30:21;;;;;;;8.23;0.88;;;;;;;;;;5057868;28;20056;-75
2023/08/12 10:32:53;;;;;;;0.90;0.50;;;;;;;;;;5058270;28;20063;-75
2023/08/12 10:35:41;;;;;;;2.17;0.50;;;;;;;;;;5058955;28;20040;-75
2023/08/12 10:38:21;;;;;;;1.70;0.40;;;;;;;;;;5059159;28;20040;-75
2023/08/12 10:40:51;;;;;;;1.00;0.50;;;;;;;;;;5058863;28;20051;-75
2023/08/12 10:43:28;;;;;;;0.47;0.45;;;;;;;;;;5057502;28;20060;-74
2023/08/12 10:45:59;;;;;;;0.50;0.50;;;;;;;;;;5058798;28;20051;-75
2023/08/12 10:48:30;;;;;;;0.82;0.30;;;;;;;;;;5059396;28;20051;-75
2023/08/12 10:51:00;;;;;;;3.80;0.50;;;;;;;;;;5058609;28;20866;-75
2023/08/12 10:53:35;;;;;;;1.25;0.43;;;;;;;;;;5058407;28;20495;-75
2023/08/12 10:56:12;;;;;;;1.80;0.47;;;;;;;;;;5058524;28;20059;-75
2023/08/12 10:58:46;;;;;;;2.05;0.52;;;;;;;;;;5059005;28;20479;-75
2023/08/12 11:01:19;;;;;;;3.25;0.80;;;;;;;;;;5058845;28;20410;-75
2023/08/12 11:03:53;;;;;;;1.65;0.60;;;;;;;;;;5058509;28;20068;-75
2023/08/12 11:06:28;;;;;;;1.85;0.60;;;;;;;;;;5058663;28;20037;-75
2023/08/12 11:08:59;;;;;;;9.20;0.60;;;;;;;;;;5057770;28;20503;-74
2023/08/12 11:11:29;;;;;;;0.77;0.50;;;;;;;;;;5058242;28;20044;-75
2023/08/12 11:14:15;;;;;;;3.28;0.60;;;;;;;;;;5059119;28;20048;-75
2023/08/12 11:16:47;;;;;;;2.58;0.52;;;;;;;;;;5058347;28;20044;-75
2023/08/12 11:19:20;;;;;;;1.40;0.57;;;;;;;;;;5056996;28;20396;-75
2023/08/12 11:21:52;;;;;;;3.88;0.68;;;;;;;;;;5058524;28;20067;-76
2023/08/12 11:24:24;;;;;;;1.25;0.45;;;;;;;;;;5059356;28;20044;-74
2023/08/12 11:26:55;;;;;;;1.20;0.60;;;;;;;;;;5058367;28;20043;-79
2023/08/12 11:29:26;;;;;;;1.65;0.40;;;;;;;;;;5059230;28;20049;-75
2023/08/12 11:31:57;;;;;;;4.10;0.60;;;;;;;;;;5062169;28;20049;-75
2023/08/12 11:34:29;;;;;;;5.13;0.75;;;;;;;;;;5062114;28;20045;-75
2023/08/12 11:36:59;;;;;;;2.30;0.63;;;;;;;;;;5062130;28;20044;-74
2023/08/12 11:39:31;;;;;;;2.30;0.63;;;;;;;;;;5062034;28;20044;-75
2023/08/12 11:42:01;;;;;;;1.98;0.80;;;;;;;;;;5061680;28;20045;-75
2023/08/12 11:44:33;;;;;;;2.22;0.70;;;;;;;;;;5061680;28;20063;-75
2023/08/12 11:47:04;;;;;;;6.47;0.80;;;;;;;;;;5061895;28;20049;-74
2023/08/12 11:49:34;;;;;;;1.60;0.57;;;;;;;;;;5060212;28;20049;-75
2023/08/12 11:52:05;;;;;;;0.93;0.65;;;;;;;;;;5061552;28;20059;-75
2023/08/12 11:54:37;;;;;;;2.45;0.60;;;;;;;;;;5061880;28;20044;-75
2023/08/12 11:57:08;;;;;;;6.18;0.80;;;;;;;;;;5061443;28;20506;-77
2023/08/12 11:59:39;;;;;;;1.52;0.70;;;;;;;;;;5061552;28;20055;-74
2023/08/12 12:02:12;;;;;;;3.97;0.63;;;;;;;;;;5061632;28;20499;-74
2023/08/12 12:04:44;;;;;;;3.72;0.60;;;;;;;;;;5061260;28;20527;-74
2023/08/12 12:07:23;;;;;;;0.60;0.50;;;;;;;;;;5061531;28;20049;-75
2023/08/12 12:09:54;;;;;;;5.68;0.57;;;;;;;;;;5061361;28;20059;-75
2023/08/12 12:12:25;;;;;;;1.73;0.70;;;;;;;;;;5061251;28;20048;-75
2023/08/12 12:14:57;;;;;;;2.10;0.45;;;;;;;;;;5061309;28;20052;-75
2023/08/12 12:17:27;;;;;;;2.90;0.60;;;;;;;;;;5059885;28;20670;-75
2023/08/12 12:19:59;;;;;;;4.90;0.77;;;;;;;;;;5061611;28;20036;-76
2023/08/12 12:22:33;;;;;;;3.28;0.63;;;;;;;;;;5060436;28;20059;-77
2023/08/12 12:25:09;;;;;;;13.35;0.80;;;;;;;;;;5060894;28;20526;-75
2023/08/12 12:27:41;;;;;;;4.00;0.63;;;;;;;;;;5060811;28;20047;-78
2023/08/12 12:30:15;;;;;;;0.88;0.35;;;;;;;;;;5062692;28;20048;-75
2023/08/12 12:32:46;;;;;;;2.20;0.47;;;;;;;;;;5061152;28;20067;-74
2023/08/12 12:35:16;;;;;;;2.67;0.57;;;;;;;;;;5061129;28;20055;-75
2023/08/12 12:37:47;;;;;;;5.75;0.55;;;;;;;;;;5060803;28;20040;-74
2023/08/12 12:40:17;;;;;;;1.73;0.63;;;;;;;;;;5062108;28;20048;-75
2023/08/12 12:42:47;;;;;;;4.28;0.68;;;;;;;;;;5060208;28;20040;-75
2023/08/12 12:45:17;;;;;;;1.02;0.43;;;;;;;;;;5042927;28;20596;-75
2023/08/12 12:47:49;;;;;;;2.47;0.65;;;;;;;;;;5060392;28;20049;-76
2023/08/12 12:50:20;;;;;;;1.52;0.50;;;;;;;;;;5060133;28;20495;-76
2023/08/12 12:52:50;;;;;;;5.60;0.60;;;;;;;;;;5059181;28;20092;-75
2023/08/12 12:55:21;;;;;;;4.88;0.60;;;;;;;;;;5060268;28;20087;-75
2023/08/12 12:57:52;;;;;;;8.27;1.30;;;;;;;;;;5060278;28;20507;-74
2023/08/12 13:00:23;;;;;;;6.22;0.90;;;;;;;;;;5060584;28;20048;-75
2023/08/12 13:02:54;;;;;;;2.03;0.63;;;;;;;;;;5060194;28;20052;-75
2023/08/12 13:05:24;;;;;;;1.67;0.50;;;;;;;;;;5060669;28;20040;-79
2023/08/12 13:07:56;;;;;;;3.25;0.60;;;;;;;;;;5060404;28;20470;-75
2023/08/12 13:10:28;;;;;;;3.47;0.65;;;;;;;;;;5060368;28;20048;-76
2023/08/12 13:13:00;;;;;;;7.75;0.70;;;;;;;;;;5060255;28;20083;-75
2023/08/12 13:15:30;;;;;;;5.75;0.52;;;;;;;;;;5058046;28;20048;-74
2023/08/12 13:18:04;;;;;;;5.38;0.63;;;;;;;;;;5060028;28;20500;-77
2023/08/12 13:20:34;;;;;;;2.92;0.50;;;;;;;;;;5060286;28;20582;-75
2023/08/12 13:23:05;;;;;;;2.78;0.75;;;;;;;;;;5060855;28;20518;-76
2023/08/12 13:25:35;;;;;;;3.17;0.60;;;;;;;;;;5062058;28;20036;-75
2023/08/12 13:28:07;;;;;;;3.45;0.82;;;;;;;;;;5061268;28;20045;-75
2023/08/12 13:30:39;;;;;;;5.75;0.77;;;;;;;;;;5061379;28;20044;-75
2023/08/12 13:33:09;;;;;;;3.17;0.90;;;;;;;;;;5059647;28;20515;-75
2023/08/12 13:35:39;;;;;;;9.55;0.65;;;;;;;;;;5060284;28;20044;-77
2023/08/12 13:38:11;;;;;;;1.90;0.70;;;;;;;;;;5060103;28;20048;-76
2023/08/12 13:40:41;;;;;;;4.30;0.70;;;;;;;;;;5058172;28;20063;-81
2023/08/12 13:43:11;;;;;;;3.85;0.80;;;;;;;;;;5059914;28;20699;-76
2023/08/12 13:45:41;;;;;;;2.88;0.57;;;;;;;;;;5058348;28;20056;-74
2023/08/12 13:48:12;;;;;;;3.08;0.47;;;;;;;;;;5059329;28;20408;-82
2023/08/12 13:50:44;;;;;;;2.55;0.77;;;;;;;;;;5059340;28;20056;-76
2023/08/12 13:53:14;;;;;;;4.22;0.80;;;;;;;;;;5058056;28;20059;-77
2023/08/12 13:55:44;;;;;;;5.70;0.50;;;;;;;;;;5059466;28;20044;-75
2023/08/12 13:58:15;;;;;;;6.50;0.60;;;;;;;;;;5059305;28;20048;-75
2023/08/12 14:00:46;;;;;;;6.40;1.27;;;;;;;;;;5058218;28;20098;-75
2023/08/12 14:03:21;;;;;;;2.95;0.47;;;;;;;;;;5058579;28;20048;-75
2023/08/12 14:05:52;;;;;;;6.10;0.63;;;;;;;;;;5057710;28;20052;-76
2023/08/12 14:08:23;;;;;;;3.88;0.40;;;;;;;;;;5057212;28;20056;-75
2023/08/12 14:10:53;;;;;;;4.68;0.40;;;;;;;;;;5058891;28;20202;-75
2023/08/12 14:13:24;;;;;;;5.32;0.73;;;;;;;;;;5058785;28;20101;-76
2023/08/12 14:15:55;;;;;;;5.15;0.60;;;;;;;;;;5058523;28;20623;-76
2023/08/12 14:18:25;;;;;;;5.43;0.60;;;;;;;;;;5057661;28;20620;-75
2023/08/12 14:20:56;;;;;;;9.60;0.60;;;;;;;;;;5059876;28;20055;-75
2023/08/12 14:23:26;;;;;;;4.32;0.80;;;;;;;;;;5059302;28;20055;-75
2023/08/12 14:25:57;;;;;;;12.95;0.80;;;;;;;;;;5058964;28;20048;-75
2023/08/12 14:28:28;;;;;;;2.60;0.60;;;;;;;;;;5058687;28;20048;-75
2023/08/12 14:30:58;;;;;;;1.33;0.50;;;;;;;;;;5059586;28;20518;-78
2023/08/12 14:33:30;;;;;;;9.80;1.02;;;;;;;;;;5059104;28;20492;-75
2023/08/12 14:36:00;;;;;;;5.93;0.70;;;;;;;;;;5058834;28;20048;-76
2023/08/12 14:38:32;;;;;;;11.77;0.90;;;;;;;;;;5059382;28;20376;-75
2023/08/12 14:41:04;;;;;;;7.68;0.90;;;;;;;;;;5058450;28;20059;-75
2023/08/12 14:43:34;;;;;;;3.15;0.75;;;;;;;;;;5058583;28;20048;-75
2023/08/12 14:46:05;;;;;;;4.05;0.80;;;;;;;;;;5058773;28;20083;-78
2023/08/12 14:48:36;;;;;;;1.95;0.50;;;;;;;;;;5058813;28;20427;-75
2023/08/12 14:51:06;;;;;;;3.05;1.00;;;;;;;;;;5059217;28;20758;-76
2023/08/12 14:53:37;;;;;;;3.95;0.60;;;;;;;;;;5058308;28;20052;-76
2023/08/12 14:56:07;;;;;;;5.78;1.00;;;;;;;;;;5058811;28;20060;-76
2023/08/12 14:58:39;;;;;;;2.05;0.77;;;;;;;;;;5059091;28;21080;-78
2023/08/12 15:01:09;;;;;;;2.53;0.70;;;;;;;;;;5059004;28;20053;-75
2023/08/12 15:03:41;;;;;;;6.60;0.75;;;;;;;;;;5058730;28;21085;-75
2023/08/12 15:06:13;;;;;;;2.38;0.50;;;;;;;;;;5061679;28;20051;-76
2023/08/12 15:08:43;;;;;;;1.20;0.40;;;;;;;;;;5063037;28;20049;-75
2023/08/12 15:11:17;;;;;;;1.20;0.40;;;;;;;;;;5062980;28;20051;-75